createdAt,value
2014-07-06T03:32:31.812Z,115
2014-07-06T03:32:49.515Z,115
2014-07-06T03:33:07.719Z,116
2014-07-06T03:33:25.924Z,117
2014-07-06T03:33:43.486Z,119
2014-07-06T03:34:01.689Z,121
2014-07-06T03:34:19.269Z,122
2014-07-06T03:34:36.223Z,124
2014-07-06T03:34:53.160Z,125
2014-07-06T03:35:11.363Z,127
2014-07-06T03:35:29.568Z,128
2014-07-06T03:35:47.756Z,129
2014-07-06T03:36:05.334Z,129
2014-07-06T03:36:22.271Z,129
2014-07-06T03:36:39.227Z,128
2014-07-06T03:36:56.805Z,127
2014-07-06T03:37:14.992Z,126
2014-07-06T03:37:32.697Z,124
2014-07-06T03:37:50.900Z,123
2014-07-06T03:38:09.104Z,122
2014-07-06T03:38:27.291Z,121
2014-07-06T03:38:45.496Z,121
2014-07-06T03:39:03.699Z,120
2014-07-06T03:39:21.887Z,121
2014-07-06T03:39:39.467Z,121
2014-07-06T03:39:57.811Z,121
2014-07-06T03:40:16.139Z,121
2014-07-06T03:40:33.092Z,122
2014-07-06T03:40:50.047Z,122
2014-07-06T03:41:08.235Z,123
2014-07-06T03:41:25.813Z,123
2014-07-06T03:41:44.002Z,123
2014-07-06T03:42:01.580Z,123
2014-07-06T03:42:19.158Z,123
2014-07-06T03:42:37.362Z,124
2014-07-06T03:42:55.551Z,124
2014-07-06T03:43:13.754Z,124
2014-07-06T03:43:31.317Z,125
2014-07-06T03:43:49.522Z,125
2014-07-06T03:44:07.100Z,125
2014-07-06T03:44:24.678Z,125
2014-07-06T03:44:43.008Z,126
2014-07-06T03:45:01.352Z,126
2014-07-06T03:45:21.493Z,126
2014-07-06T03:45:39.118Z,126
2014-07-06T03:45:56.698Z,127
2014-07-06T03:46:14.401Z,127
2014-07-06T03:46:32.745Z,127
2014-07-06T03:46:50.948Z,128
2014-07-06T03:47:08.528Z,128
2014-07-06T03:47:26.231Z,128
2014-07-06T03:47:44.434Z,129
2014-07-06T03:48:02.014Z,129
2014-07-06T03:48:20.217Z,129
2014-07-06T03:48:38.405Z,130
2014-07-06T03:48:56.751Z,130
2014-07-06T03:49:14.454Z,130
2014-07-06T03:49:32.032Z,131
2014-07-06T03:49:48.985Z,132
2014-07-06T03:50:06.707Z,131
2014-07-06T03:50:24.894Z,133
2014-07-06T03:50:43.238Z,132
2014-07-06T03:51:00.800Z,132
2014-07-06T03:51:18.381Z,133
2014-07-06T03:51:36.584Z,133
2014-07-06T03:51:54.787Z,133
2014-07-06T03:52:12.976Z,133
2014-07-06T03:52:31.179Z,134
2014-07-06T03:52:49.523Z,134
2014-07-06T03:53:07.087Z,134
2014-07-06T03:53:24.790Z,134
2014-07-06T03:53:42.368Z,134
2014-07-06T03:53:59.946Z,135
2014-07-06T03:54:17.511Z,135
2014-07-06T03:54:35.714Z,135
2014-07-06T03:54:53.292Z,135
2014-07-06T03:55:10.870Z,135
2014-07-06T03:55:28.450Z,135
2014-07-06T03:55:46.028Z,136
2014-07-06T03:56:03.731Z,136
2014-07-06T03:56:21.311Z,136
2014-07-06T03:56:39.640Z,137
2014-07-06T03:56:57.218Z,137
2014-07-06T03:57:14.780Z,137
2014-07-06T03:57:32.985Z,138
2014-07-06T03:57:51.188Z,138
2014-07-06T03:58:07.501Z,138
2014-07-06T03:58:25.831Z,139
2014-07-06T03:58:43.409Z,140
2014-07-06T03:59:00.972Z,140
2014-07-06T03:59:17.925Z,141
2014-07-06T03:59:36.255Z,141
2014-07-06T03:59:54.458Z,141
2014-07-06T04:00:12.021Z,142
2014-07-06T04:00:30.224Z,142
2014-07-06T04:00:47.788Z,143
2014-07-06T04:01:05.991Z,143
2014-07-06T04:01:24.179Z,144
2014-07-06T04:01:41.775Z,144
2014-07-06T04:01:59.353Z,144
2014-07-06T04:02:17.681Z,145
2014-07-06T04:02:34.134Z,145
2014-07-06T04:02:51.856Z,146
2014-07-06T04:03:10.043Z,147
2014-07-06T04:03:27.621Z,149
2014-07-06T04:03:45.809Z,149
2014-07-06T04:04:04.013Z,149
2014-07-06T04:04:21.591Z,149
2014-07-06T04:04:38.529Z,152
2014-07-06T04:04:56.110Z,156
2014-07-06T04:05:13.672Z,156
2014-07-06T04:05:31.391Z,153
2014-07-06T04:05:49.578Z,151
2014-07-06T04:06:07.784Z,149
2014-07-06T04:06:25.346Z,149
2014-07-06T04:06:43.549Z,149
2014-07-06T04:07:01.754Z,149
2014-07-06T04:07:19.957Z,150
2014-07-06T04:07:37.551Z,151
2014-07-06T04:07:55.739Z,151
2014-07-06T04:08:13.319Z,150
2014-07-06T04:08:31.522Z,150
2014-07-06T04:08:48.475Z,150
2014-07-06T04:09:06.805Z,150
2014-07-06T04:09:23.258Z,150
2014-07-06T04:09:41.477Z,151
2014-07-06T04:09:59.166Z,151
2014-07-06T04:10:15.478Z,152
2014-07-06T04:10:33.681Z,152
2014-07-06T04:10:51.259Z,152
2014-07-06T04:11:09.450Z,152
2014-07-06T04:11:27.153Z,153
2014-07-06T04:11:45.356Z,153
2014-07-06T04:12:02.935Z,153
2014-07-06T04:12:19.873Z,153
2014-07-06T04:12:38.216Z,154
2014-07-06T04:12:56.420Z,154
2014-07-06T04:13:14.751Z,155
2014-07-06T04:13:31.829Z,155
2014-07-06T04:13:49.407Z,155
2014-07-06T04:14:05.860Z,155
2014-07-06T04:14:24.065Z,156
2014-07-06T04:14:42.253Z,156
2014-07-06T04:14:59.831Z,157
2014-07-06T04:15:18.035Z,157
2014-07-06T04:15:35.597Z,158
2014-07-06T04:15:52.676Z,158
2014-07-06T04:16:10.254Z,159
2014-07-06T04:16:27.819Z,159
2014-07-06T04:16:45.397Z,160
2014-07-06T04:17:03.600Z,160
2014-07-06T04:17:20.554Z,161
2014-07-06T04:17:38.259Z,162
2014-07-06T04:17:55.962Z,162
2014-07-06T04:18:13.665Z,163
2014-07-06T04:18:31.870Z,164
2014-07-06T04:18:49.433Z,165
2014-07-06T04:19:06.386Z,166
2014-07-06T04:19:24.089Z,166
2014-07-06T04:19:41.669Z,168
2014-07-06T04:19:59.872Z,168
2014-07-06T04:20:17.575Z,169
2014-07-06T05:05:09.928Z,348
2014-07-06T05:05:28.131Z,368
2014-07-06T05:05:46.334Z,369
2014-07-06T05:06:03.899Z,370
2014-07-06T05:06:22.242Z,368
2014-07-06T05:06:40.430Z,369
2014-07-06T05:06:58.149Z,373
2014-07-06T05:07:15.713Z,371
2014-07-06T05:07:33.916Z,373
2014-07-06T05:07:52.119Z,371
2014-07-06T05:08:10.322Z,371
2014-07-06T05:08:27.904Z,372
2014-07-06T05:08:45.607Z,372
2014-07-06T05:09:03.810Z,374
2014-07-06T05:09:21.374Z,375
2014-07-06T05:09:39.577Z,375
2014-07-06T05:09:57.156Z,374
2014-07-06T05:10:15.359Z,373
2014-07-06T05:10:33.688Z,375
2014-07-06T05:10:51.407Z,374
2014-07-06T05:11:09.110Z,373
2014-07-06T05:11:27.441Z,378
2014-07-06T05:11:45.769Z,380
2014-07-06T05:12:03.972Z,378
2014-07-06T05:12:20.925Z,377
2014-07-06T05:12:38.645Z,379
2014-07-06T05:12:56.207Z,380
2014-07-06T05:13:13.911Z,382
2014-07-06T05:13:32.116Z,383
2014-07-06T05:13:49.678Z,380
2014-07-06T05:14:07.897Z,380
2014-07-06T05:14:25.459Z,380
2014-07-06T05:14:43.666Z,374
2014-07-06T05:15:00.603Z,369
2014-07-06T05:15:18.306Z,369
2014-07-06T05:15:36.511Z,366
2014-07-06T05:15:54.730Z,373
2014-07-06T05:16:12.433Z,379
2014-07-06T05:16:30.011Z,381
2014-07-06T05:16:47.591Z,384
2014-07-06T05:17:05.170Z,385
2014-07-06T05:17:23.388Z,385
2014-07-06T05:17:41.092Z,380
2014-07-06T05:17:59.421Z,383
2014-07-06T05:18:17.764Z,384
2014-07-06T05:18:35.329Z,385
2014-07-06T05:18:53.048Z,381
2014-07-06T05:19:11.235Z,381
2014-07-06T05:19:29.438Z,381
2014-07-06T05:19:47.660Z,382
2014-07-06T05:20:05.847Z,384
2014-07-06T05:20:23.441Z,384
2014-07-06T05:20:41.646Z,386
2014-07-06T05:20:58.584Z,389
2014-07-06T05:21:15.537Z,385
2014-07-06T05:21:33.865Z,390
2014-07-06T05:21:52.069Z,392
2014-07-06T05:22:10.257Z,388
2014-07-06T05:22:28.460Z,391
2014-07-06T05:22:46.665Z,391
2014-07-06T05:23:04.868Z,392
2014-07-06T05:23:23.087Z,392
2014-07-06T05:23:40.649Z,390
2014-07-06T05:23:58.246Z,388
2014-07-06T05:24:15.824Z,388
2014-07-06T05:24:34.027Z,384
2014-07-06T05:24:51.605Z,386
2014-07-06T05:25:09.170Z,386
2014-07-06T05:25:27.373Z,384
2014-07-06T05:25:44.951Z,385
2014-07-06T05:26:03.140Z,384
2014-07-06T05:26:21.358Z,382
2014-07-06T05:26:39.562Z,386
2014-07-06T05:26:57.124Z,391
2014-07-06T05:27:14.704Z,390
2014-07-06T05:27:33.048Z,389
2014-07-06T05:27:50.610Z,392
2014-07-06T05:28:08.816Z,389
2014-07-06T05:28:27.019Z,387
2014-07-06T05:28:44.597Z,384
2014-07-06T05:29:02.944Z,384
2014-07-06T05:29:20.506Z,384
2014-07-06T05:29:38.850Z,384
2014-07-06T05:29:55.787Z,386
2014-07-06T05:30:13.991Z,388
2014-07-06T05:30:32.195Z,387
2014-07-06T05:30:50.398Z,388
2014-07-06T05:31:08.010Z,388
2014-07-06T05:31:25.588Z,390
2014-07-06T05:31:43.166Z,391
2014-07-06T05:32:01.510Z,391
2014-07-06T05:32:18.449Z,390
2014-07-06T05:32:35.402Z,391
2014-07-06T05:32:53.605Z,391
2014-07-06T05:33:11.167Z,391
2014-07-06T05:33:28.747Z,392
2014-07-06T05:33:46.466Z,389
2014-07-06T05:34:04.654Z,393
2014-07-06T05:34:22.860Z,389
2014-07-06T05:34:41.188Z,390
2014-07-06T05:34:58.766Z,393
2014-07-06T05:35:16.969Z,391
2014-07-06T05:35:34.690Z,391
2014-07-06T05:35:52.393Z,389
2014-07-06T05:36:10.721Z,392
2014-07-06T05:36:29.065Z,390
2014-07-06T05:36:47.270Z,388
2014-07-06T05:37:04.848Z,389
2014-07-06T05:37:23.051Z,389
2014-07-06T05:37:39.991Z,388
2014-07-06T05:37:57.694Z,388
2014-07-06T05:38:14.647Z,387
2014-07-06T05:38:32.975Z,386
2014-07-06T05:38:51.321Z,384
2014-07-06T05:39:09.524Z,385
2014-07-06T05:39:26.462Z,387
2014-07-06T05:39:44.024Z,385
2014-07-06T05:40:02.229Z,390
2014-07-06T05:40:20.432Z,392
2014-07-06T05:40:37.385Z,391
2014-07-06T05:40:54.950Z,388
2014-07-06T05:41:12.528Z,385
2014-07-06T05:41:30.091Z,385
2014-07-06T05:41:47.669Z,384
2014-07-06T05:42:04.624Z,387
2014-07-06T05:50:58.296Z,469
2014-07-06T05:51:16.499Z,430
2014-07-06T05:51:34.689Z,349
2014-07-06T05:51:52.892Z,455
2014-07-06T05:52:10.486Z,412
2014-07-06T05:52:27.426Z,430
2014-07-06T05:52:44.379Z,361
2014-07-06T05:53:01.989Z,461
2014-07-06T05:53:19.067Z,432
2014-07-06T05:53:37.271Z,345
2014-07-06T05:53:54.974Z,347
2014-07-06T05:54:12.646Z,345
2014-07-06T05:54:30.833Z,343
2014-07-06T05:54:47.774Z,339
2014-07-06T05:55:04.852Z,336
2014-07-06T05:55:22.555Z,339
2014-07-06T05:55:40.134Z,311
2014-07-06T05:55:57.837Z,305
2014-07-06T05:56:16.181Z,301
2014-07-06T05:56:33.119Z,150
2014-07-06T05:56:50.824Z,189
2014-07-06T05:57:08.527Z,277
2014-07-06T05:57:56.841Z,282
2014-07-06T05:58:14.419Z,284
2014-07-06T05:58:32.623Z,300
2014-07-06T05:58:50.201Z,300
2014-07-06T05:59:08.407Z,300
2014-07-06T05:59:26.610Z,300
2014-07-06T05:59:44.797Z,300
2014-07-06T06:00:01.111Z,300
2014-07-06T06:00:18.689Z,300
2014-07-06T06:00:36.392Z,301
2014-07-06T06:00:53.470Z,302
2014-07-06T06:01:11.676Z,300
2014-07-06T06:01:29.880Z,299
2014-07-06T06:01:47.442Z,300
2014-07-06T06:02:05.145Z,301
2014-07-06T06:02:22.850Z,299
2014-07-06T06:02:40.428Z,298
2014-07-06T06:02:57.507Z,301
2014-07-06T06:03:15.712Z,301
2014-07-06T06:03:33.290Z,304
2014-07-06T06:03:50.852Z,308
2014-07-06T06:04:09.196Z,308
2014-07-06T06:04:27.386Z,306
2014-07-06T06:04:44.964Z,307
2014-07-06T06:05:03.167Z,308
2014-07-06T06:05:21.372Z,309
2014-07-06T06:05:38.950Z,310
2014-07-06T06:05:56.513Z,310
2014-07-06T06:06:13.591Z,311
2014-07-06T06:06:31.170Z,313
2014-07-06T06:06:49.373Z,312
2014-07-06T06:07:05.826Z,311
2014-07-06T06:07:23.406Z,311
2014-07-06T06:07:40.484Z,313
2014-07-06T06:07:58.062Z,311
2014-07-06T06:08:16.250Z,309
2014-07-06T06:08:33.831Z,307
2014-07-06T06:08:52.175Z,307
2014-07-06T06:09:10.378Z,307
2014-07-06T06:09:28.708Z,307
2014-07-06T06:10:08.599Z,306
2014-07-06T06:10:26.819Z,307
2014-07-06T06:10:43.757Z,308
2014-07-06T06:11:01.960Z,306
2014-07-06T06:11:18.898Z,307
2014-07-06T06:11:36.478Z,308
2014-07-06T06:11:54.821Z,306
2014-07-06T06:12:13.009Z,309
2014-07-06T06:12:29.337Z,313
2014-07-06T06:12:47.667Z,314
2014-07-06T06:13:03.980Z,316
2014-07-06T06:13:20.917Z,316
2014-07-06T06:13:39.122Z,316
2014-07-06T06:13:57.325Z,316
2014-07-06T06:14:15.607Z,317
2014-07-06T06:14:33.811Z,318
2014-07-06T06:14:52.014Z,320
2014-07-06T06:15:10.342Z,320
2014-07-06T06:15:28.545Z,294
2014-07-06T06:15:46.751Z,303
2014-07-06T06:16:04.954Z,328
2014-07-06T06:16:22.548Z,302
2014-07-06T06:16:40.126Z,299
2014-07-06T06:16:58.316Z,299
2014-07-06T06:17:15.269Z,299
2014-07-06T06:17:32.222Z,299
2014-07-06T06:17:50.427Z,299
2014-07-06T06:18:08.630Z,289
2014-07-06T06:18:25.708Z,290
2014-07-06T06:18:43.914Z,300
2014-07-06T06:19:02.101Z,299
2014-07-06T06:19:18.429Z,298
2014-07-06T06:19:36.757Z,298
2014-07-06T06:19:54.337Z,296
2014-07-06T06:20:11.916Z,297
2014-07-06T06:20:29.619Z,297
2014-07-06T06:20:46.072Z,296
2014-07-06T06:21:04.527Z,295
2014-07-06T06:21:22.699Z,295
2014-07-06T06:21:40.902Z,292
2014-07-06T06:21:59.107Z,290
2014-07-06T06:22:16.670Z,286
2014-07-06T06:22:34.388Z,284
2014-07-06T06:22:51.951Z,286
2014-07-06T06:23:40.500Z,284
2014-07-06T06:23:58.703Z,283
2014-07-06T06:24:16.283Z,282
2014-07-06T06:24:33.220Z,282
2014-07-06T06:24:50.799Z,283
2014-07-06T06:25:09.002Z,282
2014-07-06T06:25:27.207Z,283
2014-07-06T06:25:45.410Z,283
2014-07-06T06:26:03.613Z,286
2014-07-06T06:26:21.334Z,291
2014-07-06T06:26:39.537Z,294
2014-07-06T06:26:57.865Z,296
2014-07-06T06:27:16.211Z,297
2014-07-06T06:27:34.398Z,299
2014-07-06T06:27:51.976Z,299
2014-07-06T06:28:31.244Z,302
2014-07-06T06:28:49.572Z,301
2014-07-06T06:29:06.525Z,300
2014-07-06T06:29:24.853Z,300
2014-07-06T06:29:41.809Z,300
2014-07-06T06:30:00.012Z,301
2014-07-06T06:30:17.715Z,302
2014-07-06T06:30:35.296Z,303
2014-07-06T06:30:52.999Z,303
2014-07-06T06:31:10.562Z,303
2014-07-06T06:50:39.441Z,303
2014-07-06T06:50:57.646Z,302
2014-07-06T06:51:15.850Z,302
2014-07-06T06:51:33.412Z,301
2014-07-06T06:51:51.118Z,298
2014-07-06T06:52:08.696Z,296
2014-07-06T06:52:26.899Z,295
2014-07-06T06:52:45.228Z,304
2014-07-06T06:53:02.807Z,304
2014-07-06T06:53:20.510Z,304
2014-07-06T06:53:38.713Z,304
2014-07-06T06:53:56.307Z,304
2014-07-06T06:54:13.887Z,304
2014-07-06T06:54:32.231Z,304
2014-07-06T06:54:49.793Z,303
2014-07-06T06:55:07.374Z,303
2014-07-06T06:55:24.952Z,303
2014-07-06T06:55:43.155Z,303
2014-07-06T06:56:01.359Z,303
2014-07-06T06:56:19.688Z,302
2014-07-06T06:56:37.266Z,303
2014-07-06T06:56:54.844Z,303
2014-07-06T06:57:42.628Z,303
2014-07-06T06:58:00.347Z,304
2014-07-06T06:58:18.552Z,304
2014-07-06T06:58:35.490Z,304
2014-07-06T06:58:53.083Z,304
2014-07-06T06:59:10.661Z,304
2014-07-06T06:59:28.867Z,304
2014-07-06T06:59:47.070Z,304
2014-07-06T07:00:04.648Z,305
2014-07-06T07:00:20.962Z,305
2014-07-06T07:00:38.525Z,306
2014-07-06T07:00:56.728Z,306
2014-07-06T07:01:13.056Z,306
2014-07-06T07:01:30.745Z,306
2014-07-06T07:01:48.338Z,305
2014-07-06T07:02:06.526Z,305
2014-07-06T07:02:24.120Z,305
2014-07-06T07:02:42.326Z,304
2014-07-06T07:03:00.529Z,303
2014-07-06T07:03:18.857Z,304
2014-07-06T07:03:37.092Z,304
2014-07-06T07:03:55.295Z,304
2014-07-06T07:04:13.499Z,304
2014-07-06T07:04:31.689Z,304
2014-07-06T07:04:48.642Z,304
2014-07-06T07:05:05.595Z,307
2014-07-06T07:05:23.923Z,308
2014-07-06T07:05:42.129Z,307
2014-07-06T07:05:59.707Z,298
2014-07-06T07:06:17.894Z,294
2014-07-06T07:06:36.115Z,297
2014-07-06T07:06:53.693Z,309
2014-07-06T07:07:11.896Z,310
2014-07-06T07:07:30.099Z,314
2014-07-06T07:07:47.679Z,318
2014-07-06T07:08:05.883Z,325
2014-07-06T07:08:24.086Z,330
2014-07-06T07:08:42.290Z,333
2014-07-06T07:08:59.884Z,338
2014-07-06T07:09:18.071Z,339
2014-07-06T07:09:36.274Z,338
2014-07-06T07:09:54.496Z,336
2014-07-06T07:10:11.433Z,331
2014-07-06T07:10:29.012Z,326
2014-07-06T07:10:47.340Z,324
2014-07-06T07:11:04.919Z,333
2014-07-06T07:11:23.263Z,345
2014-07-06T07:11:40.825Z,353
2014-07-06T07:11:58.405Z,359
2014-07-06T07:12:16.749Z,362
2014-07-06T07:12:34.452Z,360
2014-07-06T07:12:52.658Z,360
2014-07-06T07:13:10.861Z,362
2014-07-06T07:13:29.064Z,361
2014-07-06T07:13:46.643Z,364
2014-07-06T07:14:04.348Z,365
2014-07-06T07:14:22.551Z,363
2014-07-06T07:14:40.129Z,361
2014-07-06T07:14:58.035Z,355
2014-07-06T07:15:16.224Z,340
2014-07-06T07:15:33.817Z,351
2014-07-06T07:15:52.005Z,341
2014-07-06T07:16:09.586Z,338
2014-07-06T07:16:27.289Z,331
2014-07-06T07:16:44.383Z,282
2014-07-06T07:17:01.961Z,250
2014-07-06T07:17:20.151Z,228
2014-07-06T07:17:38.369Z,243
2014-07-06T07:17:55.932Z,279
2014-07-06T07:18:14.137Z,282
2014-07-06T07:18:32.340Z,299
2014-07-06T07:18:50.543Z,318
2014-07-06T07:19:08.748Z,318
2014-07-06T07:19:26.311Z,318
2014-07-06T07:19:43.264Z,318
2014-07-06T07:20:00.967Z,319
2014-07-06T07:20:18.671Z,318
2014-07-06T07:20:34.984Z,320
2014-07-06T07:20:52.562Z,323
2014-07-06T07:21:10.765Z,324
2014-07-06T07:21:28.970Z,325
2014-07-06T07:21:47.189Z,329
2014-07-06T07:22:04.751Z,339
2014-07-06T07:22:22.332Z,352
2014-07-06T07:22:40.536Z,363
2014-07-06T07:22:57.489Z,369
2014-07-06T07:23:15.067Z,368
2014-07-06T07:23:33.396Z,370
2014-07-06T07:23:50.990Z,373
2014-07-06T07:24:09.177Z,372
2014-07-06T07:24:27.382Z,376
2014-07-06T07:24:45.585Z,382
2014-07-06T07:25:03.789Z,389
2014-07-06T07:25:22.009Z,396
2014-07-06T07:25:40.197Z,395
2014-07-06T07:25:57.775Z,391
2014-07-06T07:26:16.103Z,384
2014-07-06T07:26:33.684Z,379
2014-07-06T07:26:51.887Z,374
2014-07-06T07:27:10.090Z,369
2014-07-06T07:27:27.811Z,367
2014-07-06T07:27:45.530Z,360
2014-07-06T07:28:03.233Z,354
2014-07-06T07:28:20.827Z,352
2014-07-06T07:28:39.015Z,353
2014-07-06T07:28:57.359Z,355
2014-07-06T07:29:15.062Z,356
2014-07-06T07:29:33.392Z,358
2014-07-06T07:29:50.970Z,358
2014-07-06T07:30:09.174Z,356
2014-07-06T07:30:27.517Z,353
2014-07-06T07:30:45.098Z,351
2014-07-06T07:31:03.286Z,348
2014-07-06T07:31:21.020Z,348
2014-07-06T07:31:38.098Z,352
2014-07-06T07:31:55.804Z,358
2014-07-06T07:32:14.007Z,364
2014-07-06T07:32:31.585Z,371
2014-07-06T07:32:49.930Z,371
2014-07-06T07:33:08.117Z,367
2014-07-06T07:33:26.305Z,362
2014-07-06T07:33:43.242Z,365
2014-07-06T07:34:01.464Z,352
2014-07-06T07:34:19.667Z,284
2014-07-06T07:34:37.854Z,293
2014-07-06T07:34:56.199Z,292
2014-07-06T07:35:13.777Z,317
2014-07-06T07:35:30.730Z,335
2014-07-06T07:35:48.309Z,337
2014-07-06T07:36:06.514Z,340
2014-07-06T07:36:24.701Z,344
2014-07-06T07:36:43.045Z,346
2014-07-06T07:37:00.626Z,350
2014-07-06T07:37:18.204Z,354
2014-07-06T07:37:35.767Z,355
2014-07-06T07:37:53.985Z,351
2014-07-06T07:38:12.191Z,347
2014-07-06T07:38:29.753Z,342
2014-07-06T07:38:47.331Z,338
2014-07-06T07:39:04.895Z,337
2014-07-06T07:39:23.098Z,340
2014-07-06T07:39:40.801Z,348
2014-07-06T07:39:59.007Z,351
2014-07-06T07:40:17.210Z,346
2014-07-06T07:40:34.788Z,340
2014-07-06T07:40:52.991Z,336
2014-07-06T07:41:09.931Z,332
2014-07-06T07:41:28.134Z,330
2014-07-06T07:41:46.337Z,328
2014-07-06T07:42:04.540Z,327
2014-07-06T07:42:22.869Z,326
2014-07-06T07:42:40.448Z,326
2014-07-06T07:42:58.651Z,326
2014-07-06T07:43:16.857Z,326
2014-07-06T07:43:34.435Z,328
2014-07-06T07:43:51.997Z,325
2014-07-06T07:44:10.326Z,325
2014-07-06T07:44:27.905Z,328
2014-07-06T07:44:45.483Z,323
2014-07-06T07:45:03.061Z,332
2014-07-06T07:45:21.392Z,305
2014-07-06T07:45:39.626Z,250
2014-07-06T07:45:57.189Z,328
2014-07-06T07:46:14.767Z,332
2014-07-06T07:46:32.332Z,339
2014-07-06T07:46:49.910Z,352
2014-07-06T07:47:08.113Z,365
2014-07-06T07:47:26.318Z,308
2014-07-06T07:47:44.521Z,312
2014-07-06T07:48:00.834Z,288
2014-07-06T07:48:18.537Z,279
2014-07-06T07:48:35.476Z,325
2014-07-06T07:48:53.820Z,339
2014-07-06T07:49:10.757Z,339
2014-07-06T07:49:28.963Z,340
2014-07-06T07:49:46.666Z,339
2014-07-06T07:50:02.994Z,340
2014-07-06T07:50:20.556Z,339
2014-07-06T07:50:38.261Z,338
2014-07-06T07:50:56.465Z,342
2014-07-06T07:51:13.418Z,350
2014-07-06T07:51:31.746Z,358
2014-07-06T07:51:49.326Z,351
2014-07-06T07:52:07.529Z,345
2014-07-06T07:52:24.467Z,337
2014-07-06T07:52:42.812Z,340
2014-07-06T07:53:00.515Z,315
2014-07-06T07:53:18.219Z,331
2014-07-06T07:53:36.424Z,343
2014-07-06T07:53:54.627Z,345
2014-07-06T07:54:12.830Z,344
2014-07-06T07:54:31.033Z,274
2014-07-06T07:54:49.238Z,283
2014-07-06T07:55:07.441Z,290
2014-07-06T07:55:25.629Z,311
2014-07-06T07:55:43.209Z,371
2014-07-06T07:56:01.412Z,378
2014-07-06T07:56:19.615Z,384
2014-07-06T07:56:37.180Z,384
2014-07-06T07:56:53.008Z,362
2014-07-06T07:57:11.211Z,382
2014-07-06T07:57:29.414Z,352
2014-07-06T07:57:46.979Z,367
2014-07-06T07:58:05.182Z,361
2014-07-06T07:58:22.760Z,359
2014-07-06T07:58:39.714Z,304
2014-07-06T07:58:57.417Z,289
2014-07-06T07:59:15.761Z,296
2014-07-06T07:59:33.964Z,314
2014-07-06T07:59:51.670Z,339
2014-07-06T08:00:09.248Z,369
2014-07-06T08:00:26.842Z,367
2014-07-06T08:00:44.404Z,362
2014-07-06T08:01:01.968Z,357
2014-07-06T08:01:18.296Z,360
2014-07-06T08:01:35.859Z,352
2014-07-06T08:01:53.439Z,355
2014-07-06T08:02:11.017Z,359
2014-07-06T08:02:29.220Z,363
2014-07-06T08:02:47.423Z,361
2014-07-06T08:03:05.004Z,359
2014-07-06T08:03:23.207Z,355
2014-07-06T08:03:41.410Z,367
2014-07-06T08:03:59.741Z,351
2014-07-06T08:04:17.944Z,318
2014-07-06T08:04:36.162Z,326
2014-07-06T08:04:54.372Z,326
2014-07-06T08:05:11.934Z,320
2014-07-06T08:05:30.137Z,307
2014-07-06T08:05:47.715Z,311
2014-07-06T08:06:04.697Z,363
2014-07-06T08:06:22.400Z,366
2014-07-06T08:06:40.619Z,363
2014-07-06T08:06:58.223Z,357
2014-07-06T08:07:16.426Z,344
2014-07-06T08:07:34.629Z,288
2014-07-06T08:07:52.333Z,299
2014-07-06T08:08:10.097Z,293
2014-07-06T08:08:28.285Z,302
2014-07-06T08:08:46.488Z,306
2014-07-06T08:09:04.875Z,305
2014-07-06T08:09:22.453Z,304
2014-07-06T08:09:40.656Z,336
2014-07-06T08:09:58.859Z,357
2014-07-06T08:10:16.455Z,351
2014-07-06T08:10:34.658Z,342
2014-07-06T08:10:53.001Z,335
2014-07-06T08:11:11.222Z,331
2014-07-06T08:11:28.175Z,328
2014-07-06T08:11:45.112Z,328
2014-07-06T08:12:02.050Z,328
2014-07-06T08:12:20.409Z,329
2014-07-06T08:12:38.597Z,330
2014-07-06T08:12:56.316Z,330
2014-07-06T08:13:14.535Z,330
2014-07-06T08:13:32.738Z,329
2014-07-06T08:13:50.941Z,328
2014-07-06T08:14:07.879Z,328
2014-07-06T08:14:25.473Z,326
2014-07-06T08:14:43.676Z,325
2014-07-06T08:15:02.020Z,325
2014-07-06T08:15:19.610Z,324
2014-07-06T08:15:37.797Z,324
2014-07-06T08:15:55.500Z,323
2014-07-06T08:16:13.078Z,323
2014-07-06T08:16:31.289Z,323
2014-07-06T12:31:45.701Z,513
2014-07-06T12:32:03.904Z,508
2014-07-06T12:32:22.107Z,503
2014-07-06T12:32:39.688Z,498
2014-07-06T12:32:57.250Z,494
2014-07-06T12:33:15.453Z,490
2014-07-06T12:33:33.674Z,487
2014-07-06T12:33:51.252Z,486
2014-07-06T12:34:08.815Z,485
2014-07-06T12:34:26.395Z,486
2014-07-06T12:34:43.973Z,487
2014-07-06T12:35:01.551Z,487
2014-07-06T12:35:19.895Z,486
2014-07-06T12:35:38.147Z,485
2014-07-06T12:35:56.475Z,483
2014-07-06T12:36:13.428Z,481
2014-07-06T12:36:31.633Z,478
2014-07-06T12:36:49.821Z,483
2014-07-06T12:37:06.774Z,485
2014-07-06T12:37:24.979Z,484
2014-07-06T12:37:43.182Z,482
2014-07-06T12:38:01.526Z,480
2014-07-06T12:38:19.088Z,478
2014-07-06T12:38:37.434Z,475
2014-07-06T12:38:55.012Z,471
2014-07-06T12:39:13.215Z,465
2014-07-06T12:39:30.795Z,463
2014-07-06T12:39:47.108Z,464
2014-07-06T12:40:05.311Z,465
2014-07-06T12:40:22.889Z,465
2014-07-06T12:40:40.469Z,464
2014-07-06T12:40:58.672Z,463
2014-07-06T12:41:16.891Z,465
2014-07-06T12:41:35.221Z,470
2014-07-06T12:41:53.424Z,474
2014-07-06T12:42:11.752Z,475
2014-07-06T12:42:29.957Z,478
2014-07-06T12:42:48.175Z,478
2014-07-06T12:43:05.128Z,478
2014-07-06T12:43:23.459Z,478
2014-07-06T12:43:41.662Z,476
2014-07-06T12:43:59.240Z,474
2014-07-06T12:44:16.818Z,472
2014-07-06T12:44:34.398Z,470
2014-07-06T12:44:51.976Z,470
2014-07-06T12:45:10.195Z,470
2014-07-06T12:45:27.760Z,469
2014-07-06T12:45:45.964Z,469
2014-07-06T12:46:03.542Z,469
2014-07-06T12:46:21.135Z,468
2014-07-06T12:46:39.465Z,468
2014-07-06T12:46:57.668Z,467
2014-07-06T12:47:15.886Z,467
2014-07-06T12:47:34.092Z,465
2014-07-06T12:47:51.670Z,464
2014-07-06T12:48:09.857Z,464
2014-07-06T12:48:27.453Z,464
2014-07-06T12:48:45.015Z,465
2014-07-06T12:49:02.594Z,465
2014-07-06T12:49:20.797Z,465
2014-07-06T12:49:39.127Z,463
2014-07-06T12:49:57.471Z,459
2014-07-06T12:50:15.049Z,458
2014-07-06T12:50:31.988Z,458
2014-07-06T12:50:48.941Z,458
2014-07-06T12:51:07.144Z,458
2014-07-06T12:51:25.475Z,459
2014-07-06T12:51:43.053Z,461
2014-07-06T12:52:01.381Z,464
2014-07-06T12:52:18.350Z,467
2014-07-06T12:52:36.680Z,469
2014-07-06T12:52:54.883Z,469
2014-07-06T12:53:12.602Z,470
2014-07-06T12:53:30.166Z,469
2014-07-06T12:53:48.510Z,469
2014-07-06T12:54:06.854Z,468
2014-07-06T12:54:24.418Z,466
2014-07-06T12:54:42.121Z,464
2014-07-06T12:54:59.699Z,461
2014-07-06T12:55:17.902Z,458
2014-07-06T12:55:35.483Z,456
2014-07-06T12:55:53.670Z,453
2014-07-06T12:56:11.248Z,451
2014-07-06T12:56:29.593Z,448
2014-07-06T12:56:47.937Z,445
2014-07-06T12:57:06.280Z,442
2014-07-06T12:57:24.611Z,440
2014-07-06T12:57:42.814Z,437
2014-07-06T12:58:01.017Z,434
2014-07-06T12:58:19.220Z,430
2014-07-06T12:58:36.801Z,407
2014-07-06T12:58:54.379Z,395
2014-07-06T12:59:11.957Z,389
2014-07-06T12:59:30.161Z,383
2014-07-06T12:59:47.724Z,377
2014-07-06T13:00:05.302Z,372
2014-07-06T13:00:23.505Z,367
2014-07-06T13:00:40.460Z,361
2014-07-06T13:00:56.773Z,356
2014-07-06T13:01:14.351Z,352
2014-07-06T13:01:32.557Z,347
2014-07-06T13:01:50.120Z,344
2014-07-06T13:02:08.338Z,339
2014-07-06T13:02:26.541Z,335
2014-07-06T13:02:44.871Z,331
2014-07-06T13:03:03.074Z,328
2014-07-06T13:03:21.417Z,324
2014-07-06T13:03:39.607Z,321
2014-07-06T13:03:57.935Z,319
2014-07-06T13:04:15.529Z,319
2014-07-06T13:04:33.109Z,318
2014-07-06T13:04:50.687Z,319
2014-07-06T13:05:08.890Z,320
2014-07-06T13:05:26.468Z,320
2014-07-06T13:05:44.673Z,322
2014-07-06T13:06:02.252Z,326
2014-07-06T13:06:20.455Z,345
2014-07-06T13:06:38.035Z,359
2014-07-06T13:06:55.597Z,362
2014-07-06T13:07:11.925Z,357
2014-07-06T13:07:30.256Z,344